»·PEaware :: N182BL KTOA-KCMA

N182BL :: KTOA-KCMA

FLIGHT INFORMATION

Flight Status: Arrived
Operator: Privately registered:
United States
More flights under this callsign
Pilot: James D. (13710)
Aircraft: BEECH AIRCRAFT BARON
(BE58)
More flights by this aircraft type
Origin: KTOA Zamperini
United States
Destination: KCMA Camarillo
United States
More flights between these airports :: More routes between these airports
Route: LIMBO V64 SMO125 SMO VNY
File this flight plan on PilotEdge
Remarks: Tec route SCTN26
Altitude:
(Current/Filed)
4,000ft
Speed:
(Current/Filed)
200kts
Departed: 11-Jan-18 01:50 PM
Arrived: 11-Jan-18 02:15 PM
Distance/Time
Traveled:
45nm/0:25
Distance/Time
To Go:
Arrived

Flight Plot

Page will automatically refresh every two minutes.


Map Options




Map Legend


Flown Route
Filed Route
Departure Airport
Arrival Airport
Navaid (VOR, NDB)
Fix

Horizontal Profiles

Position Reports

Time Latitude Longitude Heading Altitude Ground
Speed
11-Jan-18 13:27 33.801601 -118.341420 218 98ft 0kts
11-Jan-18 13:28 33.801601 -118.341420 218 98ft 0kts
11-Jan-18 13:29 33.801601 -118.341420 218 98ft 0kts
11-Jan-18 13:30 33.801601 -118.341420 218 98ft 0kts
11-Jan-18 13:31 33.801601 -118.341420 218 98ft 0kts
11-Jan-18 13:32 33.801601 -118.341420 218 98ft 0kts
11-Jan-18 13:33 33.801601 -118.341420 218 98ft 0kts
11-Jan-18 13:34 33.801601 -118.341420 218 98ft 0kts
11-Jan-18 13:35 33.801601 -118.341420 218 98ft 0kts
11-Jan-18 13:36 33.801601 -118.341420 218 98ft 0kts
11-Jan-18 13:37 33.801601 -118.341420 218 98ft 0kts
11-Jan-18 13:38 33.801601 -118.341420 218 98ft 0kts
11-Jan-18 13:39 33.801601 -118.341420 218 98ft 0kts
11-Jan-18 13:40 33.801601 -118.341420 218 98ft 0kts
11-Jan-18 13:41 33.801601 -118.341420 218 98ft 0kts
11-Jan-18 13:42 33.801601 -118.341420 218 98ft 0kts
11-Jan-18 13:43 33.801601 -118.341420 218 98ft 0kts
11-Jan-18 13:44 33.801601 -118.341420 218 98ft 0kts
11-Jan-18 13:45 33.801601 -118.341420 218 98ft 0kts
11-Jan-18 13:46 33.801601 -118.341420 218 98ft 0kts
11-Jan-18 13:47 33.801601 -118.341420 218 98ft 0kts
11-Jan-18 13:48 33.801601 -118.341420 218 98ft 0kts
11-Jan-18 13:49 33.801601 -118.341420 218 98ft 0kts
11-Jan-18 13:50 33.801471 -118.341333 100 98ft 0kts
11-Jan-18 13:51 33.800994 -118.340177 131 98ft 13kts
11-Jan-18 13:52 33.799199 -118.336262 130 98ft 13kts
11-Jan-18 13:53 33.798999 -118.333407 31 98ft 5kts
11-Jan-18 13:54 33.799118 -118.333292 41 98ft 0kts
11-Jan-18 13:55 33.799754 -118.333220 315 98ft 0kts
11-Jan-18 13:56 33.811881 -118.351864 302 507ft 138kts
11-Jan-18 13:57 33.833207 -118.388926 305 1670ft 155kts
11-Jan-18 13:58 33.821523 -118.429170 216 3002ft 156kts
11-Jan-18 13:59 33.783013 -118.452898 188 4038ft 172kts
11-Jan-18 14:00 33.756460 -118.422273 50 4040ft 189kts
11-Jan-18 14:01 33.799955 -118.386579 31 4034ft 187kts
11-Jan-18 14:02 33.842722 -118.353727 31 4034ft 179kts
11-Jan-18 14:03 33.885505 -118.325009 354 4029ft 177kts
11-Jan-18 14:04 33.923643 -118.360977 319 4034ft 178kts
11-Jan-18 14:05 33.960111 -118.401140 319 4030ft 179kts
11-Jan-18 14:06 33.996679 -118.441807 319 4027ft 179kts
11-Jan-18 14:07 34.030609 -118.485694 311 4020ft 181kts
11-Jan-18 14:08 34.063496 -118.531594 311 3997ft 179kts
11-Jan-18 14:09 34.096040 -118.576955 312 3998ft 179kts
11-Jan-18 14:10 34.126429 -118.618842 312 3997ft 177kts
11-Jan-18 14:11 34.148806 -118.649162 312 3995ft 177kts
11-Jan-18 14:12 34.180104 -118.690797 311 3995ft 176kts
11-Jan-18 14:13 34.195519 -118.740376 271 3994ft 175kts
11-Jan-18 14:14 34.197543 -118.799533 270 3899ft 180kts
11-Jan-18 14:15 34.202775 -118.858429 279 3417ft 175kts
11-Jan-18 14:16 34.208768 -118.915187 275 2380ft 163kts
11-Jan-18 14:17 34.212531 -118.966445 269 1681ft 137kts
11-Jan-18 14:18 34.213136 -119.009966 270 1153ft 128kts
11-Jan-18 14:19 34.213531 -119.049585 268 729ft 116kts
11-Jan-18 14:20 34.213678 -119.085092 269 108ft 93kts
11-Jan-18 14:21 34.212996 -119.095541 201 75ft 0kts
11-Jan-18 14:22 34.212629 -119.095668 191 75ft 14kts
11-Jan-18 14:23 34.210385 -119.094826 176 75ft 0kts

Navigation Log

Ident Type
1. KTOA Airport
2. LIMBO Fix
3. SMO Navaid
4. VNY Navaid
5. KCMA Airport